createdAt,value
2019-04-23T00:02:26.568Z,8.37
2019-04-23T00:04:55.567Z,5.90
2019-04-23T00:07:35.563Z,6.87
2019-04-23T00:10:06.568Z,5.62
2019-04-23T00:12:40.588Z,6.92
2019-04-23T00:17:40.255Z,5.92
2019-04-23T00:20:04.552Z,7.05
2019-04-23T00:23:02.076Z,6.15
2019-04-23T00:28:22.994Z,7.62
2019-04-23T00:35:50.199Z,6.28
2019-04-23T00:38:28.360Z,7.22
2019-04-23T00:43:27.238Z,8.77
2019-04-23T00:48:36.359Z,7.25
2019-04-23T00:50:56.098Z,8.70
2019-04-23T00:53:29.670Z,10.40
2019-04-23T00:56:19.198Z,9.93
2019-04-23T00:58:33.687Z,6.83
2019-04-23T01:00:57.889Z,6.53
2019-04-23T01:03:27.106Z,10.00
2019-04-23T01:06:07.805Z,8.85
2019-04-23T01:08:37.942Z,7.40
2019-04-23T01:11:16.765Z,9.35
2019-04-23T01:16:19.573Z,9.73
2019-04-23T01:18:54.451Z,8.75
2019-04-23T01:21:14.011Z,7.15
2019-04-23T01:24:10.266Z,7.28
2019-04-23T01:27:33.619Z,9.63
2019-04-23T01:29:50.661Z,9.73
2019-04-23T01:32:20.735Z,7.87
2019-04-23T01:35:04.615Z,9.10
2019-04-23T01:37:28.609Z,9.98
2019-04-23T01:39:57.926Z,6.80
2019-04-23T01:45:01.900Z,9.18
2019-04-23T01:47:33.627Z,7.95
2019-04-23T01:50:08.372Z,8.40
2019-04-23T01:55:08.132Z,6.43
2019-04-23T01:57:37.773Z,8.23
2019-04-23T02:00:09.867Z,8.77
2019-04-23T02:02:46.092Z,7.07
2019-04-23T02:05:15.698Z,7.17
2019-04-23T02:07:44.368Z,6.53
2019-04-23T02:17:44.281Z,7.37
2019-04-23T02:20:17.920Z,9.43
2019-04-23T02:23:11.415Z,6.50
2019-04-23T02:25:50.517Z,8.07
2019-04-23T02:28:11.990Z,11.97
2019-04-23T02:33:31.761Z,8.37
2019-04-23T02:35:55.850Z,9.20
2019-04-23T02:38:20.822Z,7.40
2019-04-23T02:43:16.126Z,8.87
2019-04-23T02:56:04.371Z,8.53
2019-04-23T02:58:43.797Z,8.70
2019-04-23T03:01:14.860Z,8.43
2019-04-23T03:13:48.343Z,11.07
2019-04-23T03:16:31.824Z,8.97
2019-04-23T03:19:13.392Z,12.17
2019-04-23T03:22:01.742Z,11.87
2019-04-23T03:25:07.234Z,14.87
2019-04-23T03:30:09.110Z,11.03
2019-04-23T03:40:13.885Z,12.07
2019-04-23T03:45:16.719Z,10.33
2019-04-23T03:47:37.431Z,10.77
2019-04-23T03:52:40.556Z,11.07
2019-04-23T03:57:43.420Z,10.93
2019-04-23T04:00:30.258Z,11.13
2019-04-23T04:03:02.162Z,11.17
2019-04-23T04:05:27.365Z,12.57
2019-04-23T04:10:28.162Z,14.10
2019-04-23T04:15:53.651Z,14.73
2019-04-23T04:18:03.949Z,10.40
2019-04-23T04:23:19.222Z,11.80
2019-04-23T04:28:03.471Z,13.53
2019-04-23T04:30:43.458Z,15.10
2019-04-23T04:33:11.297Z,13.00
2019-04-23T04:35:27.170Z,15.27
2019-04-23T04:38:15.485Z,14.07
2019-04-23T04:40:57.671Z,15.60
2019-04-23T04:43:13.203Z,15.93
2019-04-23T04:45:56.859Z,13.43
2019-04-23T04:47:58.859Z,12.83
2019-04-23T04:50:45.925Z,13.87
2019-04-23T04:55:45.113Z,17.40
2019-04-23T04:58:19.097Z,17.23
2019-04-23T05:00:59.623Z,19.20
2019-04-23T05:08:19.494Z,17.50
2019-04-23T05:11:11.372Z,17.07
2019-04-23T05:18:40.026Z,18.57
2019-04-23T05:21:20.756Z,18.80
2019-04-23T05:23:50.378Z,18.80
2019-04-23T05:26:21.024Z,18.20
2019-04-23T05:28:55.657Z,22.00
2019-04-23T05:43:44.911Z,20.05
2019-04-23T05:48:45.816Z,19.30
2019-04-23T05:51:23.856Z,22.87
2019-04-23T05:53:46.653Z,16.67
2019-04-23T05:56:15.177Z,21.77
2019-04-23T05:58:52.157Z,18.37
2019-04-23T06:01:47.779Z,21.03
2019-04-23T06:03:58.243Z,16.57
2019-04-23T06:06:26.201Z,17.03
2019-04-23T06:08:53.243Z,18.53
2019-04-23T06:11:28.419Z,17.47
2019-04-23T06:13:55.470Z,19.37
2019-04-23T06:16:24.905Z,18.20
2019-04-23T06:18:53.390Z,24.93
2019-04-23T06:21:26.722Z,18.10
2019-04-23T06:23:53.500Z,22.20
2019-04-23T06:28:48.727Z,16.87
2019-04-23T06:31:22.876Z,19.73
2019-04-23T06:33:52.345Z,17.00
2019-04-23T06:36:19.519Z,19.17
2019-04-23T06:43:58.912Z,20.10
2019-04-23T06:46:29.128Z,15.60
2019-04-23T06:48:56.761Z,18.30
2019-04-23T06:51:32.296Z,18.03
2019-04-23T06:53:51.278Z,14.50
2019-04-23T06:56:25.012Z,17.40
2019-04-23T06:58:48.924Z,17.67
2019-04-23T07:01:25.612Z,16.43
2019-04-23T07:03:57.023Z,15.20
2019-04-23T07:06:29.905Z,18.13
2019-04-23T07:09:07.887Z,20.43
2019-04-23T07:11:28.424Z,16.37
2019-04-23T07:13:58.782Z,17.77
2019-04-23T07:16:34.882Z,17.27
2019-04-23T07:28:54.210Z,15.60
2019-04-23T07:31:29.626Z,17.73
2019-04-23T07:36:25.881Z,16.37
2019-04-23T07:41:48.229Z,15.40
2019-04-23T07:44:29.748Z,14.80
2019-04-23T07:47:11.732Z,20.37
2019-04-23T07:49:28.524Z,19.27
2019-04-23T07:52:08.670Z,15.27
2019-04-23T07:54:36.378Z,15.10
2019-04-23T07:57:07.596Z,13.03
2019-04-23T07:59:30.834Z,14.23
2019-04-23T08:01:58.141Z,16.20
2019-04-23T08:04:31.242Z,17.00
2019-04-23T08:06:56.049Z,16.03
2019-04-23T08:09:28.177Z,14.00
2019-04-23T08:12:02.917Z,16.30
2019-04-23T08:14:22.302Z,16.77
2019-04-23T08:16:50.011Z,19.33
2019-04-23T08:19:25.491Z,21.40
2019-04-23T08:21:58.319Z,20.97
2019-04-23T08:24:50.669Z,18.83
2019-04-23T08:27:18.633Z,12.77
2019-04-23T08:29:56.069Z,21.60
2019-04-23T08:37:50.609Z,14.93
2019-04-23T08:39:49.827Z,14.33
2019-04-23T08:48:15.514Z,18.47
2019-04-23T08:53:19.179Z,15.43
2019-04-23T08:55:38.859Z,17.57
2019-04-23T08:58:11.375Z,20.57
2019-04-23T09:00:40.520Z,17.47
2019-04-23T09:03:16.830Z,12.97
2019-04-23T09:10:40.983Z,21.13
2019-04-23T09:13:33.190Z,20.17
2019-04-23T09:15:51.786Z,21.50
2019-04-23T09:18:10.861Z,13.30
2019-04-23T09:20:32.756Z,17.80
2019-04-23T09:23:02.817Z,18.77
2019-04-23T09:25:40.897Z,15.37
2019-04-23T09:28:09.456Z,23.93
2019-04-23T09:30:37.051Z,16.93
2019-04-23T09:33:58.607Z,21.00
2019-04-23T09:36:45.210Z,18.30
2019-04-23T09:39:34.637Z,22.10
2019-04-23T09:42:14.762Z,26.63
2019-04-23T09:47:51.401Z,21.50
2019-04-23T09:50:23.617Z,19.63
2019-04-23T09:52:57.555Z,18.37
2019-04-23T09:55:32.422Z,21.00
2019-04-23T09:57:52.276Z,18.23
2019-04-23T10:00:25.720Z,28.60
2019-04-23T10:02:33.933Z,25.53
2019-04-23T10:05:04.057Z,21.53
2019-04-23T10:07:30.003Z,15.90
2019-04-23T10:09:51.309Z,18.17
2019-04-23T10:12:20.083Z,22.97
2019-04-23T10:14:58.334Z,17.07
2019-04-23T10:17:18.158Z,18.73
2019-04-23T10:19:46.673Z,19.07
2019-04-23T10:22:15.263Z,17.67
2019-04-23T10:24:45.385Z,18.80
2019-04-23T10:27:14.840Z,17.10
2019-04-23T10:29:43.703Z,20.70
2019-04-23T10:32:13.472Z,19.40
2019-04-23T10:34:53.032Z,20.33
2019-04-23T10:37:11.557Z,17.37
2019-04-23T10:39:43.051Z,22.73
2019-04-23T10:42:11.918Z,18.93
2019-04-23T10:45:08.936Z,16.90
2019-04-23T10:48:29.491Z,17.03
2019-04-23T10:51:08.362Z,21.30
2019-04-23T10:58:35.352Z,20.33
2019-04-23T11:01:06.313Z,16.87
2019-04-23T11:06:06.956Z,16.10
2019-04-23T11:11:09.397Z,18.57
2019-04-23T11:13:38.242Z,20.03
2019-04-23T11:16:45.176Z,14.67
2019-04-23T11:18:55.313Z,21.23
2019-04-23T11:21:14.923Z,19.83
2019-04-23T11:23:40.972Z,18.60
2019-04-23T11:26:20.024Z,20.10
2019-04-23T11:31:25.999Z,22.13
2019-04-23T11:33:44.320Z,23.40
2019-04-23T11:36:47.000Z,21.70
2019-04-23T11:38:53.913Z,19.97
2019-04-23T11:41:19.014Z,15.83
2019-04-23T11:43:37.673Z,24.70
2019-04-23T11:48:51.352Z,17.03
2019-04-23T11:53:52.872Z,19.60
2019-04-23T11:56:31.126Z,19.57
2019-04-23T11:58:42.203Z,17.90
2019-04-23T12:01:42.814Z,16.50
2019-04-23T12:07:04.751Z,16.43
2019-04-23T12:12:20.239Z,14.93
2019-04-23T12:15:13.449Z,15.03
2019-04-23T12:17:24.709Z,16.03
2019-04-23T12:20:06.048Z,18.43
2019-04-23T12:32:48.787Z,26.65
2019-04-23T12:35:16.797Z,24.27
2019-04-23T12:37:35.107Z,24.17
2019-04-23T12:40:12.893Z,20.97
2019-04-23T12:47:43.687Z,18.13
2019-04-23T12:50:18.889Z,20.33
2019-04-23T12:52:35.305Z,17.33
2019-04-23T12:57:34.375Z,14.83
2019-04-23T13:00:07.170Z,15.80
2019-04-23T13:02:39.366Z,17.55
2019-04-23T13:05:00.263Z,22.40
2019-04-23T13:07:40.029Z,14.37
2019-04-23T13:13:25.682Z,18.37
2019-04-23T13:15:05.612Z,18.03
2019-04-23T13:17:50.392Z,12.87
2019-04-23T13:22:45.897Z,18.90
2019-04-23T13:25:28.080Z,17.55
2019-04-23T13:28:08.346Z,18.77
2019-04-23T13:30:54.540Z,18.77
2019-04-23T13:32:53.301Z,19.63
2019-04-23T13:37:59.028Z,19.37
2019-04-23T13:40:24.485Z,17.40
2019-04-23T13:42:52.623Z,13.83
2019-04-23T13:45:49.918Z,21.30
2019-04-23T13:47:53.202Z,14.33
2019-04-23T13:50:35.479Z,15.50
2019-04-23T14:00:24.765Z,15.63
2019-04-23T14:05:26.514Z,15.47
2019-04-23T14:10:29.436Z,15.47
2019-04-23T14:13:08.703Z,13.13
2019-04-23T14:15:36.277Z,15.53
2019-04-23T14:18:22.701Z,17.03
2019-04-23T14:20:30.183Z,21.23
2019-04-23T14:23:08.648Z,13.37
2019-04-23T14:25:28.092Z,16.07
2019-04-23T14:28:05.712Z,15.43
2019-04-23T14:30:48.614Z,17.60
2019-04-23T14:33:00.350Z,12.60
2019-04-23T14:35:32.370Z,14.10
2019-04-23T14:38:09.441Z,17.60
2019-04-23T14:40:44.907Z,15.03
2019-04-23T14:43:08.992Z,12.73
2019-04-23T14:48:08.962Z,13.87
2019-04-23T14:53:14.584Z,13.60
2019-04-23T14:55:50.875Z,12.50
2019-04-23T14:58:17.552Z,14.50
2019-04-23T15:00:46.812Z,15.93
2019-04-23T15:05:46.022Z,18.00
2019-04-23T15:08:16.909Z,15.85
2019-04-23T15:18:25.232Z,13.63
2019-04-23T15:21:12.878Z,14.63
2019-04-23T15:23:47.668Z,15.40
2019-04-23T15:26:22.541Z,23.90
2019-04-23T15:28:07.777Z,17.30
2019-04-23T15:30:59.129Z,11.40
2019-04-23T15:33:51.891Z,14.97
2019-04-23T15:36:14.287Z,17.33
2019-04-23T15:38:33.993Z,16.30
2019-04-23T15:40:56.386Z,16.63
2019-04-23T15:43:26.490Z,18.77
2019-04-23T15:45:53.412Z,15.57
2019-04-23T15:48:24.087Z,15.23
2019-04-23T15:50:51.623Z,14.20
2019-04-23T15:53:11.261Z,11.70
2019-04-23T15:55:49.464Z,14.13
2019-04-23T15:58:47.082Z,15.77
2019-04-23T16:01:17.641Z,13.80
2019-04-23T16:03:10.457Z,10.63
2019-04-23T16:05:40.961Z,15.07
2019-04-23T16:08:48.068Z,11.07
2019-04-23T16:11:21.541Z,17.87
2019-04-23T16:16:10.516Z,14.00
2019-04-23T16:19:02.106Z,14.07
2019-04-23T16:21:41.094Z,14.95
2019-04-23T16:24:00.918Z,12.53
2019-04-23T16:26:32.382Z,14.78
2019-04-23T16:29:15.767Z,15.55
2019-04-23T16:31:26.414Z,16.32
2019-04-23T16:34:04.421Z,13.78
2019-04-23T16:36:35.884Z,11.50
2019-04-23T16:39:03.945Z,12.55
2019-04-23T16:44:03.678Z,16.93
2019-04-23T16:46:28.713Z,16.70
2019-04-23T16:49:10.123Z,12.40
2019-04-23T16:51:29.740Z,14.15
2019-04-23T16:54:06.334Z,14.47
2019-04-23T16:59:10.289Z,15.93
2019-04-23T17:01:23.118Z,15.40
2019-04-23T17:04:03.710Z,19.85
2019-04-23T17:08:57.170Z,13.90
2019-04-23T17:11:26.944Z,14.75
2019-04-23T17:14:01.403Z,13.60
2019-04-23T17:16:32.337Z,13.72
2019-04-23T17:19:03.270Z,10.93
2019-04-23T17:24:08.311Z,18.00
2019-04-23T17:29:02.677Z,16.57
2019-04-23T17:33:58.846Z,12.73
2019-04-23T17:36:32.058Z,13.53
2019-04-23T17:39:10.639Z,14.80
2019-04-23T17:41:59.616Z,13.23
2019-04-23T17:44:25.685Z,13.93
2019-04-23T17:46:50.911Z,15.20
2019-04-23T17:49:30.058Z,14.53
2019-04-23T17:51:52.010Z,14.03
2019-04-23T17:54:35.923Z,12.63
2019-04-23T17:57:01.434Z,13.47
2019-04-23T17:59:23.266Z,15.33
2019-04-23T18:02:10.825Z,16.03
2019-04-23T18:04:23.431Z,10.57
2019-04-23T18:07:04.997Z,12.23
2019-04-23T18:09:25.558Z,11.80
2019-04-23T18:14:11.474Z,13.37
2019-04-23T18:22:07.004Z,14.63
2019-04-23T18:24:57.908Z,14.53
2019-04-23T18:27:38.380Z,13.87
2019-04-23T18:30:08.084Z,13.40
2019-04-23T18:33:31.933Z,14.50
2019-04-23T18:35:20.179Z,12.30
2019-04-23T18:37:44.188Z,12.43
2019-04-23T18:40:10.398Z,13.40
2019-04-23T18:42:45.039Z,20.10
2019-04-23T18:45:22.889Z,16.10
2019-04-23T18:47:49.009Z,20.10
2019-04-23T18:50:22.710Z,12.10
2019-04-23T18:53:01.104Z,13.77
2019-04-23T18:55:29.867Z,13.47
2019-04-23T18:57:53.415Z,14.90
2019-04-23T19:00:24.874Z,15.23
2019-04-23T19:03:11.537Z,16.13
2019-04-23T19:08:41.942Z,13.43
2019-04-23T19:10:57.374Z,18.77
2019-04-23T19:13:42.252Z,15.73
2019-04-23T19:15:56.234Z,15.72
2019-04-23T19:18:35.214Z,14.70
2019-04-23T19:31:07.383Z,15.72
2019-04-23T19:38:44.252Z,16.50
2019-04-23T19:41:27.227Z,15.28
2019-04-23T19:43:49.149Z,14.43
2019-04-23T19:46:25.477Z,17.25
2019-04-23T19:48:48.185Z,16.77
2019-04-23T19:51:16.860Z,15.05
2019-04-23T19:56:16.664Z,17.12
2019-04-23T19:58:51.617Z,14.83
2019-04-23T20:03:49.743Z,16.07
2019-04-23T20:06:27.303Z,14.05
2019-04-23T20:11:15.678Z,16.35
2019-04-23T20:16:21.293Z,18.45
2019-04-23T20:18:50.856Z,18.07
2019-04-23T20:21:08.639Z,15.45
2019-04-23T20:29:16.367Z,17.62
2019-04-23T20:33:20.999Z,17.90
2019-04-23T20:34:40.305Z,17.10
2019-04-23T20:36:52.781Z,18.37
2019-04-23T20:39:21.512Z,18.73
2019-04-23T20:42:08.895Z,15.38
2019-04-23T20:44:35.113Z,19.95
2019-04-23T20:47:00.246Z,16.85
2019-04-23T20:49:31.277Z,18.82
2019-04-23T20:52:00.186Z,19.87
2019-04-23T20:54:36.192Z,16.52
2019-04-23T20:57:22.980Z,16.42
2019-04-23T20:59:49.797Z,19.10
2019-04-23T21:02:42.058Z,16.30
2019-04-23T21:05:03.516Z,17.75
2019-04-23T21:07:47.057Z,16.80
2019-04-23T21:10:08.899Z,16.77
2019-04-23T21:12:45.921Z,20.45
2019-04-23T21:15:08.733Z,16.85
2019-04-23T21:17:40.613Z,16.87
2019-04-23T21:20:08.674Z,16.77
2019-04-23T21:24:51.530Z,21.75
2019-04-23T21:27:52.570Z,18.60
2019-04-23T21:30:03.360Z,18.37
2019-04-23T21:35:20.315Z,17.42
2019-04-23T21:38:00.846Z,19.23
2019-04-23T21:46:20.606Z,20.75
2019-04-23T21:49:10.192Z,18.23
2019-04-23T21:51:31.595Z,20.08
2019-04-23T21:59:04.330Z,20.08
2019-04-23T22:01:27.426Z,18.98
2019-04-23T22:04:08.595Z,19.27
2019-04-23T22:06:28.599Z,19.12
2019-04-23T22:08:57.719Z,19.15
2019-04-23T22:11:43.868Z,20.45
2019-04-23T22:14:06.206Z,18.75
2019-04-23T22:16:27.763Z,19.97
2019-04-23T22:19:03.939Z,20.35
2019-04-23T22:21:33.014Z,19.57
2019-04-23T22:26:34.732Z,21.97
2019-04-23T22:31:29.215Z,20.92
2019-04-23T22:34:10.438Z,19.55
2019-04-23T22:38:50.651Z,21.77
2019-04-23T22:41:18.199Z,20.40
2019-04-23T22:43:59.388Z,21.52
2019-04-23T22:46:27.955Z,22.00
2019-04-23T22:49:17.992Z,22.85
2019-04-23T22:51:43.853Z,20.77
2019-04-23T22:54:05.606Z,22.22
2019-04-23T22:56:35.055Z,22.27
2019-04-23T23:01:57.112Z,21.12
2019-04-23T23:04:05.775Z,21.02
2019-04-23T23:11:43.577Z,21.43
2019-04-23T23:14:24.120Z,22.97
2019-04-23T23:16:39.212Z,21.30
2019-04-23T23:19:14.772Z,24.27
2019-04-23T23:21:42.647Z,27.80
2019-04-23T23:26:54.415Z,20.93
2019-04-23T23:29:02.435Z,28.17
2019-04-23T23:31:37.185Z,20.77
2019-04-23T23:36:38.992Z,20.77
2019-04-23T23:39:18.188Z,24.73
2019-04-23T23:46:50.546Z,24.97
2019-04-23T23:49:02.939Z,22.80
2019-04-23T23:51:49.525Z,21.47
2019-04-23T23:56:58.785Z,24.90
